Location Glendale, AZ, US

ob KWR6634 210530Z AUTO 23000KT BKN250 37/19 A2969 RMK SLPNO 

2018.07.21 0530 UTC
Wind from the SW (234 degrees) at Calm MPH ( KT) gusting to 0.0 MPH (0 KT)
Visibility    Mile(s)
Sky Conditions  mostly cloudy
Temperature 98.40 F (37 C)
Dew Point 66.06 F (19 C)
Relative Humidity 35%
Pressure   29.69 in. Hg (1005 hPa)
Rain  0.00 in.
Daily Rain  in.

Station Name  My Glendale Arizona Weather Station
Longitude, Latitude  -112.20133199999998, 33.58645
Elevation 1180
Station URL www.myglendalewxs.com
Software Type VWS V15.00